Date,TemperatureHighF,TemperatureAvgF,TemperatureLowF,DewpointHighF,DewpointAvgF,DewpointLowF,HumidityHigh,HumidityAvg,HumidityLow,PressureMaxIn,PressureMinIn,WindSpeedMaxMPH,WindSpeedAvgMPH,GustSpeedMaxMPH,PrecipitationSumIn
2013-2-6,49,43,39,35,34,33,84,71,57,29.96,29.93,0,0,0,0.00
2013-2-7,51,45,38,46,41,33,97,85,50,29.96,29.74,14,3,14,0.19
2013-2-8,57,48,37,49,43,31,97,83,54,29.98,29.73,14,2,14,0.01
2013-2-9,66,45,28,37,29,22,96,61,20,30.10,29.95,12,1,12,0.00
2013-2-10,60,49,37,50,40,30,99,73,45,30.14,29.89,24,4,24,1.12
2013-2-11,58,53,49,58,52,49,99,98,95,29.95,29.85,8,1,8,0.25
2013-2-12,59,50,45,50,42,29,99,79,34,29.93,29.67,8,1,8,0.11
2013-2-13,54,44,37,50,40,32,99,89,72,29.77,29.55,13,3,13,0.09
2013-2-14,59,43,32,36,33,29,93,69,34,29.88,29.76,10,2,10,0.00
2013-2-15,65,46,28,45,34,28,99,69,31,29.92,29.79,12,2,12,0.00
2013-2-16,44,38,29,36,22,6,86,56,25,29.93,29.75,21,5,21,0.00
2013-2-17,46,33,23,19,11,5,68,43,23,30.08,29.92,13,3,13,0.00
2013-2-18,61,42,22,32,23,17,89,52,25,30.16,29.95,18,4,18,0.00
2013-2-19,58,46,39,47,33,20,99,65,32,29.95,29.81,18,3,18,0.28
2013-2-20,56,41,31,20,14,9,49,34,21,29.99,29.90,13,3,13,0.00
2013-2-21,67,49,28,40,21,10,78,37,18,29.99,29.77,14,3,14,0.05
2013-2-22,47,42,40,43,41,39,99,98,79,29.99,29.85,17,5,17,1.28
2013-2-23,51,45,41,50,44,41,99,97,88,29.86,29.67,18,1,18,0.67
2013-2-24,68,51,38,49,38,29,99,69,28,29.84,29.72,10,1,10,0.00
2013-2-25,52,44,37,40,33,27,99,67,46,29.86,29.69,20,6,20,0.00
2013-2-26,47,41,36,46,39,35,99,94,72,29.70,29.40,20,5,20,1.18
2013-2-27,60,48,41,37,35,32,75,62,36,29.69,29.58,18,6,18,0.00
2013-2-28,50,41,36,37,30,24,81,65,49,29.80,29.65,17,5,17,0.00
2013-3-1,43,38,33,31,28,23,75,67,59,29.81,29.74,13,3,13,0.00
2013-3-2,46,37,33,32,28,22,88,70,54,29.82,29.73,17,5,17,0.00
2013-3-3,44,34,28,24,19,12,72,54,32,29.89,29.77,21,5,21,0.00
2013-3-4,63,43,24,32,22,13,80,49,21,29.97,29.82,10,2,10,0.00
2013-3-5,67,50,38,57,42,27,94,73,60,29.88,29.50,25,6,25,0.30
2013-3-6,39,36,32,29,25,17,80,63,53,29.98,29.67,25,7,25,0.00
2013-3-7,61,43,28,33,29,24,92,62,31,30.05,29.93,14,2,14,0.00
2013-3-8,66,46,26,33,26,22,96,53,20,30.12,30.00,9,2,9,0.00
2013-3-9,63,52,32,34,31,25,84,46,26,30.14,30.02,8,1,8,0.00
2013-3-10,72,59,48,48,36,29,65,44,22,30.04,29.90,22,4,22,0.00
2013-3-11,66,57,53,58,52,47,99,85,64,29.92,29.64,21,4,21,1.16
2013-3-12,59,49,39,52,38,32,99,71,40,29.90,29.65,14,4,14,0.01
2013-3-13,56,43,35,34,27,18,85,56,24,30.05,29.89,19,3,19,0.00
2013-3-14,56,42,27,23,17,11,67,40,21,30.16,30.02,14,3,14,0.00
2013-3-15,77,55,31,44,36,23,97,53,27,30.03,29.81,21,4,21,0.00
2013-3-16,80,65,52,46,42,35,72,46,23,29.83,29.70,18,5,18,0.00
2013-3-17,73,63,50,56,49,42,92,62,42,29.84,29.74,13,3,13,0.00
2013-3-18,61,51,45,58,49,44,99,92,79,29.88,29.65,17,3,17,0.38
2013-3-19,65,49,44,48,37,23,99,71,23,29.90,29.71,14,2,14,0.00
2013-3-20,61,49,38,29,21,14,66,34,21,29.94,28.80,15,3,15,0.00
2013-3-21,49,40,30,44,16,1,97,41,21,29.78,29.70,20,4,20,0.00
2013-3-22,52,43,31,36,27,19,70,54,40,29.87,29.76,8,1,8,0.00
2013-3-23,54,48,42,49,45,36,99,90,63,29.85,29.64,17,2,17,1.12
2013-3-24,50,48,43,48,46,31,99,94,62,29.64,29.35,17,4,17,1.09
2013-3-25,43,38,35,32,25,21,68,59,47,29.87,29.51,19,8,19,0.01
2013-3-26,46,36,32,29,25,22,82,64,49,30.08,29.84,18,5,18,0.00
2013-3-27,57,41,27,28,24,18,87,55,25,30.14,30.04,14,3,14,0.00
2013-3-28,64,45,27,32,26,17,96,55,21,30.15,30.03,23,2,23,0.00
2013-3-29,70,51,31,40,31,21,98,55,22,30.15,29.99,14,2,14,0.00
2013-3-30,76,60,46,57,43,33,99,58,31,30.01,29.85,17,2,17,0.37
2013-3-31,67,60,56,63,57,55,99,90,71,29.87,29.69,11,2,11,0.27
2013-4-1,73,63,54,58,47,33,99,62,25,29.86,29.69,17,3,17,0.00
2013-4-2,71,55,42,44,34,23,94,51,20,29.99,29.85,14,2,14,0.00
2013-4-3,61,52,41,46,33,25,94,53,30,30.01,29.90,17,2,17,0.09
2013-4-4,48,43,40,45,41,39,99,92,78,29.99,29.78,21,5,21,0.22
2013-4-5,71,53,40,48,41,26,99,71,19,29.88,29.74,13,2,13,0.00
2013-4-6,75,56,36,47,37,30,99,58,21,30.02,29.88,16,2,16,0.00
2013-4-7,78,60,41,51,46,40,99,63,34,30.03,29.90,15,2,15,0.00
2013-4-8,80,64,51,58,53,49,95,70,40,29.99,29.89,15,3,15,0.00
2013-4-9,84,67,50,61,55,50,99,71,39,30.03,29.92,13,2,13,0.00
2013-4-10,87,70,51,61,56,51,99,68,37,29.96,29.77,14,2,14,0.00
2013-4-11,82,66,55,69,59,54,99,78,55,29.79,29.51,17,2,17,0.99
2013-4-12,72,64,56,65,47,36,97,59,30,29.75,29.51,14,5,18,0.27
2013-4-13,80,62,45,45,39,30,90,49,18,29.86,29.75,13,2,13,0.00
2013-4-14,64,54,44,58,49,43,99,84,52,29.89,29.74,15,2,15,0.11
2013-4-15,74,60,57,59,57,54,99,92,56,29.90,29.76,11,1,11,0.00
2013-4-16,83,69,57,64,62,57,99,81,49,30.10,29.99,8,1,8,0.00
2013-4-17,86,71,60,66,62,60,99,78,46,30.07,29.93,19,2,19,0.01
2013-4-18,83,70,59,65,60,57,99,74,47,29.94,29.76,21,3,21,0.00
2013-4-19,71,60,46,67,56,40,99,88,78,29.86,29.62,24,5,24,0.61
2013-4-20,68,52,38,40,34,26,86,54,24,30.05,29.85,16,3,16,0.00
2013-4-21,71,57,38,44,38,33,99,55,29,30.16,30.04,16,3,16,0.00
2013-4-22,72,59,49,47,43,39,77,57,39,30.15,29.98,17,4,17,0.00
2013-4-23,76,60,45,52,43,36,94,56,33,30.07,29.91,16,2,16,0.00
2013-4-24,53,51,50,51,50,49,99,98,94,29.95,29.93,0,0,0,0.00
2013-4-25,74,58,45,56,39,33,99,54,25,30.13,29.96,8,1,8,0.00
2013-4-26,76,59,36,50,40,32,99,56,27,30.22,30.09,17,2,17,0.00
2013-4-27,68,61,54,57,54,45,99,79,49,30.18,30.00,15,3,15,0.05
2013-4-28,58,56,55,57,56,54,99,98,95,30.04,29.85,11,2,11,1.85
2013-4-29,76,62,55,61,57,54,99,86,49,29.88,29.76,7,1,7,0.00
2013-4-30,80,64,52,65,58,51,99,82,45,29.94,29.80,10,1,10,0.00
2013-5-1,71,64,61,62,57,54,97,78,59,30.04,29.93,14,4,14,0.00
2013-5-2,67,61,59,61,58,55,97,89,80,30.04,29.96,13,4,13,0.00
2013-5-3,63,60,58,59,57,53,99,90,74,29.98,29.81,21,5,21,0.02
2013-5-4,60,54,50,56,52,49,99,95,78,29.82,29.66,17,4,17,1.93
2013-5-5,67,57,50,62,55,50,99,93,75,29.66,29.57,9,2,14,2.08
2013-5-6,60,51,46,53,49,45,99,93,72,29.72,29.62,11,2,11,0.09
2013-5-7,74,59,49,56,52,48,99,79,47,29.81,29.67,10,1,10,0.01
2013-5-8,80,64,50,59,55,50,99,76,45,29.90,29.78,13,1,13,0.00
2013-5-9,87,68,53,64,57,52,99,72,39,29.95,29.86,12,1,12,0.00
2013-5-10,82,68,53,65,59,52,99,77,51,29.94,29.80,14,1,14,0.00
2013-5-11,79,67,57,68,63,57,99,88,65,29.84,29.72,11,1,11,0.24
2013-5-12,72,61,49,62,47,30,99,67,26,29.93,29.77,17,2,17,0.01
2013-5-13,71,56,38,44,38,29,99,57,23,30.05,29.92,16,2,16,0.00
2013-5-14,82,62,40,58,48,38,99,66,32,30.08,29.94,14,2,14,0.00
2013-5-15,89,73,56,61,57,54,95,62,34,30.00,29.86,11,1,11,0.00
2013-5-16,63,60,58,59,58,58,99,94,85,29.89,29.85,2,0,2,0.00
2013-5-17,82,70,56,65,60,56,99,74,41,29.94,29.86,8,2,8,0.04
2013-5-18,75,71,65,68,66,62,99,85,73,29.94,29.88,11,3,11,0.24
2013-5-19,71,67,63,69,66,62,99,98,94,29.96,29.83,17,2,17,3.85
2013-5-20,86,73,62,72,67,62,99,83,53,30.71,29.85,8,1,8,0.00
2013-5-21,91,77,63,74,68,62,99,76,46,29.90,29.76,11,1,11,0.00
2013-5-22,88,76,64,72,66,61,99,75,43,29.85,29.70,15,2,15,0.00
2013-5-23,86,74,66,70,64,57,99,74,46,29.82,29.76,15,2,15,0.73
2013-5-24,78,68,58,58,51,40,86,58,30,30.05,29.82,17,3,17,0.01
2013-5-25,81,63,45,54,47,39,99,62,25,30.14,30.03,14,1,14,0.00
2013-5-26,85,67,49,58,52,44,99,65,27,30.10,29.99,8,1,8,0.00
2013-5-27,88,71,54,64,58,53,99,69,36,30.08,29.95,9,1,9,0.00
2013-5-28,88,75,64,65,62,55,95,66,39,30.04,29.97,14,2,14,0.00
2013-5-29,86,74,60,66,63,59,99,70,47,30.08,29.98,12,2,12,0.00
2013-5-30,76,76,76,65,65,65,69,69,69,29.98,29.98,0,0,0,0.00
2013-5-31,76,76,76,65,65,65,69,69,69,29.98,29.98,0,0,0,0.00
2013-6-1,76,76,76,65,65,65,69,69,69,29.98,29.98,0,0,0,0.00
2013-6-2,76,76,76,65,65,65,69,69,69,29.98,29.98,0,0,0,0.00
2013-6-17,73,72,71,72,71,70,98,97,97,29.93,29.90,4,1,4,0.01
2013-6-18,84,73,69,78,71,68,99,94,69,29.92,29.80,12,2,12,0.65
2013-6-19,83,74,68,74,69,68,99,87,64,29.97,29.85,9,1,9,0.01
2013-7-4,79,73,71,74,72,69,98,95,85,30.11,30.04,12,1,15,1.19
2013-7-5,84,74,69,74,71,69,99,91,64,30.15,30.07,8,1,17,0.54
2013-7-6,86,75,69,75,71,69,99,88,64,30.11,30.01,11,1,17,0.28
2013-7-7,81,75,70,75,72,69,99,92,78,30.12,30.05,4,0,6,0.11
2013-7-8,91,79,72,76,72,68,99,81,54,30.14,30.04,5,1,8,0.00
2013-7-9,92,79,72,76,73,71,99,85,54,30.13,30.02,7,0,10,0.20
2013-7-10,93,78,71,78,74,70,99,88,55,30.06,29.92,9,0,14,0.01
2013-7-11,85,76,69,75,72,69,99,90,71,29.93,29.83,3,0,4,0.00
2013-7-12,92,76,69,76,71,66,99,87,51,29.92,29.82,8,0,14,0.40
2013-7-13,80,73,68,73,69,66,95,88,74,30.02,29.90,8,1,13,0.01
2013-7-14,84,75,71,75,72,70,97,90,70,30.17,30.00,6,1,11,0.12
2013-7-15,87,77,71,74,71,68,96,81,63,30.24,30.15,8,1,16,0.00
2013-7-16,90,79,70,74,70,66,98,77,48,30.27,30.19,8,1,11,0.00
2013-7-17,95,79,67,78,71,66,99,79,46,30.25,30.08,7,1,13,0.89
2013-7-18,93,79,68,76,71,68,99,80,53,30.18,30.00,4,0,7,0.04
2013-7-19,95,81,70,78,72,68,99,77,48,30.08,29.94,4,0,7,0.00
2013-7-20,92,77,70,75,72,69,98,86,56,30.00,29.91,7,0,11,0.02
2013-7-21,90,77,69,76,71,68,99,84,53,29.99,29.88,8,1,14,0.17
2013-7-22,87,76,70,76,72,69,99,89,62,29.98,29.84,8,1,12,0.08
2013-7-23,86,77,70,75,71,68,96,84,61,29.93,29.80,5,0,10,0.00
2013-7-24,88,78,71,75,71,65,96,82,61,29.85,29.76,8,0,10,0.00
2013-7-25,93,77,68,74,70,63,99,81,49,29.96,29.79,11,0,19,0.50
2013-7-26,90,76,66,75,70,66,99,84,55,30.02,29.93,10,1,13,0.01
2013-7-27,82,75,69,73,70,67,98,86,63,29.97,29.86,9,0,11,0.00
2013-7-28,92,76,65,75,69,65,99,81,48,29.99,29.88,4,0,8,0.00
2013-7-29,89,75,65,72,65,56,99,74,35,30.11,29.98,4,0,9,0.00
2013-7-30,92,75,59,71,64,57,99,73,35,30.15,30.05,4,0,6,0.00
2013-7-31,79,74,70,74,71,69,98,91,77,30.10,29.93,6,1,8,0.30
2013-8-1,89,77,70,75,72,70,99,86,62,29.96,29.87,4,0,8,0.61
2013-8-2,92,77,65,74,69,64,99,79,45,29.99,29.88,4,0,7,0.00
2013-8-3,89,77,64,76,69,64,99,80,51,30.01,29.95,6,0,8,0.00
2013-8-4,93,80,69,74,71,67,97,77,51,29.99,29.91,6,0,10,0.00
2013-8-5,91,77,66,73,69,64,98,77,49,30.01,29.92,8,0,11,0.00
2013-8-6,92,80,71,74,71,64,97,77,42,29.97,29.91,4,0,8,0.00
2013-8-7,81,76,70,76,74,70,99,93,80,30.02,29.92,4,0,7,2.61
2013-8-8,87,76,73,78,73,70,98,91,68,30.02,29.95,6,0,8,0.21
2013-8-9,90,80,72,79,73,71,99,81,57,30.06,29.96,9,1,11,0.00
2013-8-10,96,78,72,77,74,70,99,87,50,30.08,30.03,11,0,21,0.17
2013-8-11,93,79,70,81,72,70,99,81,54,30.12,30.00,5,0,11,0.00
2013-8-12,94,78,70,78,72,70,99,84,51,30.07,29.95,6,0,9,0.00
2013-8-13,88,77,70,76,72,70,99,87,61,29.98,29.84,8,0,17,0.12
2013-8-14,83,76,69,73,70,64,99,85,68,29.98,29.84,5,0,8,0.00
2013-8-15,76,71,68,68,62,58,93,75,57,30.04,29.95,11,2,18,0.00
2013-8-16,69,66,62,64,62,60,97,86,77,30.06,29.99,8,2,13,0.15
2013-8-17,66,65,62,66,62,59,99,92,79,30.09,30.02,8,1,13,0.26
2013-8-18,76,69,65,72,68,65,99,95,85,30.14,30.04,4,0,8,0.97
2013-8-19,80,72,68,74,70,68,99,93,79,30.11,30.01,5,0,8,1.61
2013-8-20,82,74,70,73,71,68,98,89,74,30.13,30.03,5,0,10,0.01
2013-8-21,81,74,70,74,71,69,98,90,73,30.19,30.06,4,0,8,0.04
2013-8-22,90,77,68,78,71,68,99,83,51,30.12,30.00,9,1,18,0.51
2013-8-23,92,78,67,77,71,67,99,83,50,30.04,29.92,7,0,11,0.00
2013-8-24,85,75,67,69,67,64,99,79,57,30.20,29.99,8,1,14,0.00
2013-8-25,84,73,63,68,62,58,97,71,48,30.30,30.19,7,1,14,0.00
2013-8-26,85,71,58,72,62,57,99,78,49,30.26,30.09,5,0,7,0.00
2013-8-27,91,74,60,72,65,60,99,77,42,30.12,29.99,5,0,7,0.00
2013-8-28,93,78,65,74,70,65,99,80,47,30.02,29.92,4,0,7,0.00
2013-8-29,95,81,70,76,73,70,98,77,50,29.96,29.87,4,0,9,0.00
2013-8-30,89,78,72,76,74,71,99,86,63,29.99,29.88,4,0,9,0.00
2013-8-31,94,78,71,77,73,66,99,84,50,29.94,29.83,7,1,16,0.15
2013-9-1,88,74,68,78,72,68,99,92,68,29.90,29.84,5,0,9,0.01
2013-9-2,83,74,70,75,71,69,98,90,67,29.93,29.83,4,0,11,0.02
2013-9-3,92,78,69,75,71,65,99,80,49,29.93,29.83,6,0,11,0.00
2013-9-4,91,76,64,75,68,63,99,79,46,30.05,29.92,5,0,8,0.00
2013-9-5,92,77,66,75,69,66,99,80,47,30.08,30.00,4,0,7,0.00
2013-9-6,88,74,64,73,66,63,99,79,52,30.11,30.00,8,1,12,0.00
2013-9-7,90,74,62,73,66,62,99,79,45,30.08,29.95,5,0,8,0.00
2013-9-8,94,76,63,74,68,62,99,80,46,29.98,29.89,5,0,10,0.00
2013-9-9,91,77,66,76,69,65,99,79,47,30.07,29.94,7,1,11,0.00
2013-9-10,89,76,66,75,70,66,99,82,54,30.17,30.06,7,1,10,0.00
2013-9-11,93,77,65,76,68,62,99,77,41,30.17,30.05,7,0,8,0.00
2013-9-12,95,77,65,75,69,65,99,80,46,30.06,29.86,5,0,10,0.00
2013-9-13,90,76,61,72,65,57,98,72,41,29.88,29.77,7,1,14,0.00
2013-9-14,81,66,52,65,57,51,99,75,45,30.02,29.85,8,1,20,0.00
2013-9-15,84,71,61,71,65,60,99,83,58,30.12,30.02,6,1,9,0.00
2013-9-16,90,74,64,72,66,60,99,77,44,30.09,30.00,4,0,8,0.00
2013-9-17,78,71,64,68,62,58,99,75,57,30.19,30.05,11,2,17,0.00
2013-9-18,79,70,64,64,61,58,93,75,58,30.19,30.08,6,1,12,0.00
2013-9-19,86,70,57,70,63,57,99,79,49,30.13,30.02,6,0,8,0.00
2013-9-20,88,73,60,71,64,60,99,78,46,30.03,29.86,7,1,10,0.00
2013-9-21,72,68,63,71,67,62,99,97,87,29.89,29.66,7,1,13,1.18
2013-9-22,86,68,55,69,62,55,99,81,47,29.83,29.70,7,0,10,0.00
2013-9-23,82,68,57,66,61,57,99,80,51,29.97,29.83,8,1,12,0.00
2013-9-24,73,67,64,65,63,61,98,87,71,29.99,29.85,7,1,13,0.02
2013-9-25,66,64,62,66,64,62,99,98,95,29.85,29.78,7,1,11,0.91
2013-9-26,80,68,58,69,63,58,99,86,60,29.96,29.82,5,0,8,0.00
2013-9-27,80,68,57,66,60,56,99,80,52,30.08,29.96,7,1,13,0.00
2013-9-28,79,65,58,61,58,54,99,81,52,30.16,30.05,7,1,14,0.00
2013-9-29,78,64,55,60,57,54,99,79,52,30.09,29.98,7,1,12,0.00
2013-9-30,79,64,52,66,57,51,99,82,49,30.03,29.94,5,0,8,0.00
2013-10-1,85,66,52,72,60,52,99,83,45,30.10,30.00,4,0,7,0.00
2013-10-2,88,69,55,69,62,54,99,81,37,30.10,30.00,7,0,10,0.00
2013-10-3,85,71,60,70,63,59,99,80,47,30.09,30.00,8,0,10,0.00
2013-10-4,88,70,57,71,63,57,99,82,48,30.11,30.03,4,0,6,0.00
2013-10-5,89,72,58,71,64,58,99,80,44,30.08,29.96,8,0,10,0.00
2013-10-6,84,69,58,71,64,58,99,87,51,29.99,29.81,8,1,14,1.20
2013-10-7,77,66,55,67,61,54,99,87,57,29.90,29.77,6,0,12,0.47
2013-10-8,74,65,55,60,57,52,99,77,55,30.09,29.89,9,2,17,0.00
2013-10-9,77,63,53,59,52,46,99,71,42,30.14,30.04,9,1,14,0.00
2013-10-10,82,64,50,64,57,50,99,81,49,30.07,29.95,6,0,11,0.00
2013-10-11,83,64,50,66,57,50,99,80,45,29.99,29.90,11,0,17,0.00
2013-10-12,86,66,50,66,58,50,99,80,42,30.04,29.93,7,0,11,0.00
2013-10-13,84,68,55,70,61,54,99,82,49,30.13,30.02,6,0,11,0.00
2013-10-22,61,55,52,56,54,52,99,96,83,29.89,29.86,2,0,2,0.02
2013-10-23,63,52,39,54,44,35,99,78,47,30.08,29.83,11,1,20,0.00
2013-10-24,66,48,34,48,40,34,99,79,34,30.19,30.06,7,0,11,0.00
2013-10-25,61,45,33,45,34,24,99,71,26,30.34,30.18,4,1,11,0.00
2013-10-26,61,44,30,44,36,30,99,79,42,30.31,30.14,4,1,6,0.00
2013-10-27,70,61,37,57,53,37,99,78,53,30.15,30.08,4,0,8,0.00
2013-10-28,68,57,52,63,55,52,99,94,70,30.28,30.12,5,0,8,0.09
2013-10-29,76,61,51,65,56,50,99,87,58,30.33,30.24,4,0,8,0.00
2013-10-30,82,63,52,66,58,51,99,84,48,30.31,30.17,8,0,11,0.00
2013-10-31,74,66,55,66,60,54,99,83,71,30.20,29.89,10,2,16,0.00
2013-11-1,78,66,53,68,60,50,99,81,46,29.89,29.73,11,2,19,0.43
2013-11-2,72,55,44,55,47,41,99,77,37,30.06,29.82,8,0,14,0.01
2013-11-3,67,50,37,50,41,32,99,78,30,30.30,30.05,6,0,9,0.00
2013-11-4,64,51,39,45,40,38,99,69,42,30.43,30.30,10,2,17,0.00
2013-11-5,66,53,43,48,39,34,86,62,35,30.46,30.32,9,2,15,0.00
2013-11-6,74,60,51,60,55,48,99,83,61,30.34,30.12,8,1,13,0.00
2013-11-7,68,56,41,66,51,37,99,84,55,30.21,30.03,8,0,12,0.08
2013-11-8,66,47,32,38,32,21,99,64,21,30.31,30.19,5,0,8,0.00
2013-11-9,60,46,32,45,37,32,99,75,38,30.34,30.19,9,0,20,0.00
2013-11-10,76,55,42,46,43,39,99,68,32,30.26,30.16,4,0,8,0.00
2013-11-11,68,48,33,48,36,29,99,71,27,30.31,30.17,8,1,14,0.00
2013-11-12,67,45,31,48,34,16,99,69,38,30.41,30.11,7,1,18,0.00
2013-11-13,54,36,22,25,19,11,87,56,21,30.53,30.41,5,0,9,0.00
2013-11-14,62,39,23,41,24,16,99,64,20,30.46,30.28,8,0,10,0.00
2013-11-15,52,46,31,50,41,27,99,86,44,30.30,30.15,4,0,9,0.11
2013-11-16,61,55,50,58,54,50,99,97,88,30.23,30.14,8,0,11,0.01
2013-11-17,68,62,58,68,61,57,99,98,94,30.18,29.93,6,1,10,0.17
2013-11-18,74,63,49,69,50,31,99,68,24,30.05,29.89,7,1,14,0.33
2013-11-19,65,50,34,41,35,30,96,60,34,30.17,30.02,8,1,11,0.00
2013-11-20,56,48,41,36,33,29,69,56,44,30.34,30.17,11,2,20,0.00
2013-11-21,53,50,46,50,44,36,99,81,57,30.40,30.31,8,2,17,0.00
2013-11-22,63,56,50,59,55,1,99,95,83,30.35,30.17,4,0,10,0.09
2013-11-23,64,53,40,58,47,26,99,80,48,30.23,30.11,6,1,12,0.00
2013-11-24,52,38,29,26,18,10,75,47,22,30.43,30.21,6,0,10,0.00
2013-11-25,44,37,30,30,16,4,83,43,25,30.46,30.20,11,2,16,0.01
2013-11-26,50,40,33,49,40,30,99,98,83,30.20,29.62,8,1,14,1.48
2013-11-27,44,35,26,44,29,16,99,77,57,30.22,29.62,10,2,26,0.12
2013-11-28,54,33,20,28,21,15,93,65,23,30.44,30.21,4,0,6,0.00
2013-11-29,67,41,22,38,27,20,99,67,19,30.49,30.39,4,0,7,0.00
2013-11-30,55,42,35,32,28,23,77,59,32,30.54,30.32,10,2,18,0.00
2013-12-1,60,47,41,43,35,28,99,65,46,30.33,30.01,4,0,7,0.00
2013-12-2,52,47,41,51,47,40,99,99,97,30.02,29.81,2,0,4,0.27
2013-12-3,55,53,51,55,52,50,99,98,97,29.92,29.83,4,0,5,0.41
2013-12-4,72,59,54,66,58,53,99,97,82,30.05,29.90,5,0,8,0.07
2013-12-5,72,67,63,70,66,62,99,98,92,30.10,29.99,7,1,11,1.06
2013-12-6,75,69,58,70,67,57,99,92,80,30.07,29.97,11,3,18,0.33
2013-12-7,58,47,42,57,46,42,99,95,86,30.29,30.05,6,1,17,0.01
2013-12-8,50,44,40,50,43,39,99,98,97,30.29,30.18,10,2,19,0.44
2013-12-9,49,44,39,49,43,39,99,99,97,30.21,30.00,5,0,11,1.51
2013-12-10,51,44,29,49,40,28,99,86,58,30.31,29.93,11,1,21,0.14
2013-12-11,59,40,24,40,29,24,99,71,30,30.41,30.28,4,0,9,0.00
2013-12-12,52,37,28,29,24,18,83,61,29,30.41,30.30,6,1,11,0.00
2013-12-13,60,41,22,35,23,15,96,55,21,30.34,30.16,7,0,10,0.00
2013-12-14,48,46,44,48,42,-6,99,88,10,30.17,29.81,100,1,100,0.81
2013-12-15,50,40,31,50,36,28,99,86,67,30.16,29.80,8,2,16,0.00
2013-12-16,58,39,29,36,31,27,99,75,35,30.22,30.14,8,1,11,0.00
2013-12-17,64,47,29,40,35,28,99,67,36,30.20,30.05,8,1,14,0.00
2013-12-18,58,42,30,33,24,15,85,51,22,30.30,30.14,5,0,11,0.00
2013-12-19,66,43,26,41,28,22,99,65,19,30.31,30.18,4,0,8,0.00
2013-12-20,63,48,32,53,44,31,99,87,65,30.22,30.11,4,0,8,0.00
2013-12-21,70,60,50,67,59,50,99,97,90,30.12,29.94,7,0,14,0.04
2013-12-22,70,61,57,68,61,57,99,97,89,30.08,29.90,10,1,17,3.05
2013-12-23,57,49,36,57,47,32,99,93,82,30.22,30.03,7,1,13,0.01
2013-12-24,45,34,25,32,26,19,93,74,52,30.36,30.20,8,1,14,0.00
2013-12-25,47,34,25,26,20,14,83,58,35,30.45,30.32,8,1,16,0.00
2013-12-26,60,41,28,33,27,20,91,62,31,30.34,30.24,4,0,8,0.00
2013-12-27,57,37,25,34,28,23,99,74,31,30.44,30.29,6,0,10,0.00
2013-12-28,47,38,28,40,34,27,99,87,52,30.39,29.99,8,1,15,0.63
2013-12-29,55,45,40,48,43,40,99,93,73,30.03,29.83,7,1,19,0.31
2013-12-30,50,43,39,45,41,37,99,91,76,30.19,30.02,5,0,8,0.00
2013-12-31,50,40,32,37,30,23,89,71,37,30.35,30.17,6,1,11,0.00
2014-1-1,50,40,30,39,33,28,99,76,50,30.34,30.11,6,0,8,0.00
2014-1-2,50,41,24,49,37,11,99,86,54,30.12,29.75,13,2,30,0.25